createdAt,value
2023-02-22T17:01:59.643Z,19.00
2023-02-22T17:03:31.607Z,21.40
2023-02-22T17:05:03.688Z,18.40
2023-02-22T17:06:36.285Z,19.00
2023-02-22T17:08:08.253Z,16.00
2023-02-22T17:09:40.229Z,16.00
2023-02-22T17:11:13.078Z,19.20
2023-02-22T17:12:50.215Z,16.00
2023-02-22T17:14:23.509Z,17.20
2023-02-22T17:15:56.503Z,15.80
2023-02-22T17:17:28.371Z,17.00
2023-02-22T17:19:00.709Z,17.60
2023-02-22T17:20:33.014Z,20.60
2023-02-22T17:22:06.388Z,12.00
2023-02-22T17:23:38.302Z,18.40
2023-02-22T17:25:22.168Z,15.80
2023-02-22T17:26:54.507Z,15.40
2023-02-22T17:28:26.668Z,13.60
2023-02-22T17:29:58.696Z,17.20
2023-02-22T17:31:30.829Z,15.40
2023-02-22T17:33:04.332Z,17.60
2023-02-22T17:34:36.394Z,14.80
2023-02-22T17:36:08.577Z,15.40
2023-02-22T17:37:40.556Z,14.00
2023-02-22T17:39:13.590Z,13.80
2023-02-22T17:40:57.380Z,15.00
2023-02-22T17:42:29.410Z,14.00
2023-02-22T17:44:01.278Z,14.60
2023-02-22T17:45:33.185Z,17.60
2023-02-22T17:47:05.165Z,12.00
2023-02-22T17:48:37.516Z,15.40
2023-02-22T17:50:11.064Z,17.80
2023-02-22T17:51:43.118Z,14.20
2023-02-22T17:53:15.413Z,14.40
2023-02-22T17:54:47.299Z,14.80
2023-02-22T17:56:19.725Z,13.60
2023-02-22T17:57:58.467Z,15.20
2023-02-22T17:59:30.362Z,14.40
2023-02-22T18:01:02.547Z,16.80
2023-02-22T18:02:34.773Z,14.40
2023-02-22T18:04:06.981Z,13.00
2023-02-22T18:05:43.283Z,15.00
2023-02-22T18:07:19.347Z,12.80
2023-02-22T18:08:55.832Z,16.00
2023-02-22T18:10:28.264Z,17.20
2023-02-22T18:12:00.162Z,23.00
2023-02-22T18:13:32.136Z,34.00
2023-02-22T18:15:04.600Z,41.40
2023-02-22T18:16:39.026Z,49.40
2023-02-22T18:18:11.271Z,53.00
2023-02-22T18:19:43.114Z,57.50
2023-02-22T18:21:15.712Z,75.25
2023-02-22T18:22:47.675Z,76.00
2023-02-22T18:24:19.601Z,88.25
2023-02-22T18:26:09.197Z,85.00
2023-02-22T18:27:45.083Z,96.40
2023-02-22T18:29:16.947Z,104.00
2023-02-22T18:30:49.492Z,104.20
2023-02-22T18:32:21.454Z,105.00
2023-02-22T18:33:53.609Z,116.25
2023-02-22T18:35:25.643Z,114.50
2023-02-22T18:36:57.687Z,113.25
2023-02-22T18:38:29.581Z,123.50
2023-02-22T18:40:01.442Z,123.25
2023-02-22T18:41:33.345Z,126.75
2023-02-22T18:43:05.258Z,123.75
2023-02-22T18:44:37.503Z,141.00
2023-02-22T18:46:12.895Z,144.50
2023-02-22T18:47:46.060Z,142.00
2023-02-22T18:49:18.060Z,140.75
2023-02-22T18:50:49.888Z,148.75
2023-02-22T18:52:21.980Z,150.50
2023-02-22T18:54:00.160Z,151.75
2023-02-22T18:55:32.422Z,139.50
2023-02-22T18:57:04.532Z,144.25
2023-02-22T18:58:36.521Z,155.00
2023-02-22T19:00:12.304Z,133.00
2023-02-22T19:01:49.016Z,146.00
2023-02-22T19:03:21.086Z,154.25
2023-02-22T19:04:53.530Z,150.00
2023-02-22T19:06:25.357Z,147.25
2023-02-22T19:07:57.346Z,153.50
2023-02-22T19:09:30.291Z,153.25
2023-02-22T19:11:04.563Z,142.50
2023-02-22T19:12:37.835Z,137.75
2023-02-22T19:14:09.966Z,143.75
2023-02-22T19:15:42.071Z,140.25
2023-02-22T19:17:17.525Z,131.25
2023-02-22T19:18:50.123Z,128.50
2023-02-22T19:20:21.914Z,129.50
2023-02-22T19:21:56.433Z,127.25
2023-02-22T19:23:28.544Z,124.00
2023-02-22T19:25:01.461Z,116.75
2023-02-22T19:26:33.656Z,128.25
2023-02-22T19:28:05.767Z,114.25
2023-02-22T19:29:39.090Z,103.50
2023-02-22T19:31:17.764Z,98.00
2023-02-22T19:32:50.070Z,94.60
2023-02-22T19:34:24.055Z,92.60
2023-02-22T19:35:59.902Z,93.50
2023-02-22T19:37:34.929Z,88.75
2023-02-22T19:39:07.272Z,84.50
2023-02-22T19:40:39.341Z,81.50
2023-02-22T19:42:11.427Z,71.25
2023-02-22T19:43:44.448Z,82.50
2023-02-22T19:45:17.042Z,90.50
2023-02-22T19:46:49.075Z,99.20
2023-02-22T19:48:21.004Z,101.60
2023-02-22T19:49:53.115Z,99.75
2023-02-22T19:51:27.867Z,108.20
2023-02-22T19:52:59.872Z,102.25
2023-02-22T19:54:31.747Z,109.25
2023-02-22T19:56:14.296Z,112.00
2023-02-22T19:57:50.265Z,123.50
2023-02-22T19:59:23.256Z,121.00
2023-02-22T20:00:55.264Z,111.00
2023-02-22T20:02:27.701Z,122.25
2023-02-22T20:04:01.195Z,110.75
2023-02-22T20:05:33.916Z,118.25
2023-02-22T20:07:05.831Z,109.50
2023-02-22T20:08:42.261Z,122.50
2023-02-22T20:10:15.340Z,117.25
2023-02-22T20:11:47.686Z,114.75
2023-02-22T20:13:19.502Z,113.00
2023-02-22T20:14:51.388Z,115.00
2023-02-22T20:16:23.615Z,115.00
2023-02-22T20:17:56.088Z,116.50
2023-02-22T20:19:28.131Z,122.25
2023-02-22T20:21:00.323Z,136.50
2023-02-22T20:22:32.126Z,134.25
2023-02-22T20:24:06.933Z,146.50
2023-02-22T20:25:39.009Z,144.75
2023-02-22T20:27:10.895Z,146.50
2023-02-22T20:28:42.948Z,154.25
2023-02-22T20:30:18.202Z,151.25
2023-02-22T20:31:53.806Z,142.50
2023-02-22T20:33:25.907Z,147.50
2023-02-22T20:34:58.288Z,161.00
2023-02-22T20:36:30.393Z,171.25
2023-02-22T20:38:03.009Z,202.00
2023-02-22T20:39:35.089Z,197.00
2023-02-22T20:41:08.118Z,192.67
2023-02-22T20:42:40.779Z,198.00
2023-02-22T20:44:15.106Z,195.33
2023-02-22T20:45:47.096Z,194.67
2023-02-22T20:47:19.355Z,200.00
2023-02-22T20:48:55.906Z,192.33
2023-02-22T20:50:28.104Z,204.00
2023-02-22T20:51:59.989Z,208.00
2023-02-22T20:53:31.825Z,199.00
2023-02-22T20:55:04.423Z,198.33
2023-02-22T20:56:36.844Z,212.67
2023-02-22T20:58:08.775Z,217.67
2023-02-22T20:59:40.631Z,223.67
2023-02-22T21:01:14.021Z,220.00
2023-02-22T21:02:47.343Z,228.33
2023-02-22T21:04:19.343Z,221.00
2023-02-22T21:05:51.258Z,209.67
2023-02-22T21:07:23.168Z,203.33
2023-02-22T21:08:57.183Z,200.33
2023-02-22T21:10:29.096Z,209.00
2023-02-22T21:12:00.929Z,205.67
2023-02-22T21:13:32.783Z,210.67
2023-02-22T21:15:05.047Z,201.00
2023-02-22T21:16:37.188Z,201.67
2023-02-22T21:18:11.958Z,189.67
2023-02-22T21:19:44.081Z,187.67
2023-02-22T21:21:16.507Z,189.33
2023-02-22T21:22:50.946Z,179.25
2023-02-22T21:24:23.724Z,174.25
2023-02-22T21:25:55.602Z,170.50
2023-02-22T21:27:28.164Z,160.50
2023-02-22T21:29:02.363Z,167.25
2023-02-22T21:30:34.413Z,161.50
2023-02-22T21:32:06.506Z,152.75
2023-02-22T21:33:40.928Z,153.75
2023-02-22T21:35:12.771Z,148.25
2023-02-22T21:36:45.240Z,144.50
2023-02-22T21:38:17.988Z,150.00
2023-02-22T21:39:49.935Z,137.50
2023-02-22T21:41:23.885Z,134.75
2023-02-22T21:42:55.824Z,131.00
2023-02-22T21:44:27.741Z,128.50
2023-02-22T21:46:03.322Z,111.00
2023-02-22T21:47:35.979Z,114.75
2023-02-22T21:49:07.965Z,107.00
2023-02-22T21:50:39.815Z,109.00
2023-02-22T21:52:11.664Z,104.75
2023-02-22T21:53:47.634Z,102.20
2023-02-22T21:55:19.461Z,98.80
2023-02-22T21:56:51.583Z,95.20
2023-02-22T21:58:23.421Z,95.00
2023-02-22T21:59:55.344Z,86.25
2023-02-22T22:01:28.638Z,78.50
2023-02-22T22:03:08.055Z,85.75
2023-02-22T22:04:40.047Z,75.50
2023-02-22T22:06:13.632Z,78.50
2023-02-22T22:07:45.562Z,72.50
2023-02-22T22:09:21.935Z,69.25
2023-02-22T22:10:56.620Z,65.25
2023-02-22T22:12:38.727Z,67.75
2023-02-22T22:14:11.225Z,68.25
2023-02-22T22:15:43.184Z,66.25
2023-02-22T22:17:15.622Z,59.50
2023-02-22T22:18:47.509Z,59.75
2023-02-22T22:20:19.479Z,53.50
2023-02-22T22:21:54.074Z,53.25
2023-02-22T22:23:26.708Z,39.00
2023-02-22T22:24:58.530Z,47.50
2023-02-22T22:26:31.102Z,50.50
2023-02-22T22:28:02.942Z,49.00
2023-02-22T22:29:34.931Z,74.00
2023-02-22T22:31:07.161Z,85.25
2023-02-22T22:32:39.100Z,98.40
2023-02-22T22:34:11.364Z,94.60
2023-02-22T22:35:43.178Z,85.75
2023-02-22T22:37:16.314Z,87.00
2023-02-22T22:38:48.397Z,85.60
2023-02-22T22:40:20.370Z,85.50
2023-02-22T22:41:52.261Z,85.75
2023-02-22T22:43:25.108Z,95.60
2023-02-22T22:44:57.110Z,74.25
2023-02-22T22:46:29.130Z,89.00
2023-02-22T22:48:00.957Z,79.50
2023-02-22T22:49:33.741Z,70.00
2023-02-22T22:51:10.762Z,74.50
2023-02-22T22:52:42.686Z,79.25
2023-02-22T22:54:14.537Z,96.00
2023-02-22T22:55:46.496Z,119.00
2023-02-22T22:57:18.373Z,104.25
2023-02-22T22:58:51.620Z,113.75
2023-02-22T23:00:29.492Z,114.25
2023-02-22T23:02:03.953Z,118.50
2023-02-22T23:03:38.769Z,107.00
2023-02-22T23:05:10.661Z,114.00
2023-02-22T23:06:47.005Z,114.25
2023-02-22T23:08:18.887Z,110.25
2023-02-22T23:09:50.726Z,107.50
2023-02-22T23:11:22.598Z,101.50
2023-02-22T23:12:56.232Z,106.25
2023-02-22T23:14:32.369Z,99.20
2023-02-22T23:16:07.251Z,97.60
2023-02-22T23:17:42.624Z,108.60
2023-02-22T23:19:15.821Z,105.20
2023-02-22T23:20:55.171Z,109.20
2023-02-22T23:22:28.056Z,123.50
2023-02-22T23:23:59.895Z,118.75
2023-02-22T23:25:35.289Z,131.75
2023-02-22T23:27:07.429Z,126.75
2023-02-22T23:28:39.898Z,132.75
2023-02-22T23:30:15.051Z,132.25
2023-02-22T23:31:48.764Z,131.25
2023-02-22T23:33:20.789Z,131.50
2023-02-22T23:34:52.771Z,136.75
